createdAt,value
2023-05-25T00:03:12.284Z,13.20
2023-05-25T00:08:15.333Z,12.43
2023-05-25T00:13:19.663Z,12.50
2023-05-25T00:18:22.457Z,12.77
2023-05-25T00:23:25.329Z,13.35
2023-05-25T00:28:29.561Z,14.75
2023-05-25T00:33:32.805Z,15.07
2023-05-25T00:38:35.664Z,14.75
2023-05-25T00:43:39.884Z,12.05
2023-05-25T00:48:43.616Z,13.63
2023-05-25T00:53:46.507Z,12.45
2023-05-25T00:58:54.938Z,11.13
2023-05-25T01:04:00.506Z,12.10
2023-05-25T01:09:05.689Z,13.15
2023-05-25T01:14:10.348Z,10.90
2023-05-25T01:19:13.335Z,11.27
2023-05-25T01:24:27.675Z,11.63
2023-05-25T01:29:33.760Z,12.77
2023-05-25T01:34:37.292Z,11.77
2023-05-25T01:39:41.611Z,12.93
2023-05-25T01:44:46.033Z,11.80
2023-05-25T01:49:57.329Z,12.13
2023-05-25T01:55:06.597Z,13.02
2023-05-25T02:00:13.156Z,12.95
2023-05-25T02:05:21.330Z,11.50
2023-05-25T02:10:25.797Z,11.43
2023-05-25T02:15:34.522Z,11.95
2023-05-25T02:20:38.738Z,11.27
2023-05-25T02:25:43.902Z,12.05
2023-05-25T02:30:47.017Z,10.77
2023-05-25T02:35:50.508Z,12.35
2023-05-25T02:40:54.927Z,10.45
2023-05-25T02:46:00.121Z,12.05
2023-05-25T02:51:04.001Z,9.27
2023-05-25T02:56:10.424Z,12.68
2023-05-25T03:01:18.740Z,13.45
2023-05-25T03:06:27.424Z,13.18
2023-05-25T03:11:35.266Z,12.60
2023-05-25T03:16:40.472Z,12.35
2023-05-25T03:21:43.949Z,11.20
2023-05-25T03:26:48.542Z,12.25
2023-05-25T03:31:52.750Z,13.50
2023-05-25T03:36:58.972Z,13.48
2023-05-25T03:42:03.851Z,11.30
2023-05-25T03:47:07.478Z,11.68
2023-05-25T03:52:10.427Z,10.85
2023-05-25T03:57:14.820Z,14.80
2023-05-25T04:02:18.055Z,12.50
2023-05-25T04:07:21.254Z,13.30
2023-05-25T04:12:25.510Z,12.77
2023-05-25T04:17:28.937Z,13.13
2023-05-25T04:22:33.558Z,11.95
2023-05-25T04:27:38.561Z,12.13
2023-05-25T04:32:47.226Z,11.63
2023-05-25T04:38:05.199Z,12.52
2023-05-25T04:43:11.360Z,13.18
2023-05-25T04:48:14.425Z,12.57
2023-05-25T04:53:17.740Z,11.65
2023-05-25T04:58:22.167Z,12.05
2023-05-25T05:03:25.269Z,11.00
2023-05-25T05:08:28.399Z,12.82
2023-05-25T05:13:33.084Z,13.63
2023-05-25T05:18:36.441Z,13.15
2023-05-25T05:23:39.368Z,14.43
2023-05-25T05:28:43.761Z,13.00
2023-05-25T05:33:47.595Z,14.27
2023-05-25T05:38:52.146Z,15.50
2023-05-25T05:43:56.520Z,14.95
2023-05-25T05:48:59.480Z,14.70
2023-05-25T05:54:02.476Z,15.13
2023-05-25T05:59:06.846Z,14.25
2023-05-25T06:04:09.964Z,15.63
2023-05-25T06:09:13.706Z,8.93
2023-05-25T06:14:18.115Z,8.48
2023-05-25T06:19:21.198Z,9.48
2023-05-25T06:24:24.243Z,9.40
2023-05-25T06:29:28.478Z,8.00
2023-05-25T06:34:31.506Z,9.25
2023-05-25T06:39:34.647Z,9.80
2023-05-25T06:44:39.790Z,11.40
2023-05-25T06:49:44.777Z,9.93
2023-05-25T06:54:47.759Z,9.52
2023-05-25T06:59:52.303Z,10.05
2023-05-25T07:04:55.394Z,10.90
2023-05-25T07:09:58.284Z,10.45
2023-05-25T07:15:02.477Z,12.50
2023-05-25T07:20:06.240Z,11.80
2023-05-25T07:25:10.465Z,12.07
2023-05-25T07:30:15.462Z,12.25
2023-05-25T07:35:18.293Z,13.30
2023-05-25T07:40:21.126Z,11.68
2023-05-25T07:45:25.383Z,11.50
2023-05-25T07:50:29.470Z,11.07
2023-05-25T07:55:34.106Z,11.90
2023-05-25T08:00:38.290Z,10.18
2023-05-25T08:05:41.160Z,10.52
2023-05-25T08:10:45.537Z,9.18
2023-05-25T08:15:50.865Z,9.38
2023-05-25T08:20:53.680Z,10.93
2023-05-25T08:25:56.487Z,9.68
2023-05-25T08:31:01.325Z,9.90
2023-05-25T08:36:04.293Z,9.90
2023-05-25T08:41:08.145Z,10.18
2023-05-25T08:46:12.886Z,9.52
2023-05-25T08:51:18.691Z,10.75
2023-05-25T08:56:21.704Z,10.15
2023-05-25T09:01:29.805Z,9.98
2023-05-25T09:06:33.956Z,10.30
2023-05-25T09:11:40.500Z,9.25
2023-05-25T09:16:47.063Z,10.32
2023-05-25T09:21:52.957Z,9.05
2023-05-25T09:27:01.070Z,8.60
2023-05-25T09:32:06.995Z,9.27
2023-05-25T09:37:13.556Z,9.43
2023-05-25T09:42:16.469Z,9.63
2023-05-25T09:47:21.042Z,10.65
2023-05-25T09:52:24.497Z,13.40
2023-05-25T09:57:29.049Z,13.90
2023-05-25T10:02:33.540Z,13.95
2023-05-25T10:07:38.336Z,14.63
2023-05-25T10:12:42.800Z,15.20
2023-05-25T10:17:53.701Z,12.93
2023-05-25T10:23:02.268Z,13.93
2023-05-25T10:28:12.498Z,14.38
2023-05-25T10:33:17.487Z,13.10
2023-05-25T10:38:20.991Z,14.55
2023-05-25T10:43:24.539Z,12.90
2023-05-25T10:48:38.391Z,12.63
2023-05-25T10:53:45.802Z,11.00
2023-05-25T10:58:48.845Z,13.07
2023-05-25T11:04:17.304Z,13.65
2023-05-25T11:09:26.822Z,14.77
2023-05-25T11:14:31.061Z,14.00
2023-05-25T11:19:42.958Z,13.20
2023-05-25T11:24:46.229Z,13.85
2023-05-25T11:29:51.700Z,12.55
2023-05-25T11:34:58.121Z,10.35
2023-05-25T11:40:01.012Z,9.75
2023-05-25T11:45:04.058Z,8.52
2023-05-25T11:50:09.227Z,8.63
2023-05-25T11:55:14.401Z,8.57
2023-05-25T12:00:27.850Z,7.20
2023-05-25T12:05:39.676Z,7.13
2023-05-25T12:10:52.411Z,7.30
2023-05-25T12:21:01.893Z,6.53
2023-05-25T12:26:12.283Z,11.07
2023-05-25T12:31:22.935Z,6.10
2023-05-25T12:36:48.873Z,7.57
2023-05-25T12:41:54.879Z,5.63
2023-05-25T12:47:10.848Z,5.55
2023-05-25T12:52:34.756Z,5.15
2023-05-25T12:57:37.651Z,5.35
2023-05-25T13:02:43.802Z,5.10
2023-05-25T13:07:48.221Z,3.65
2023-05-25T13:12:53.787Z,3.97
2023-05-25T13:17:58.989Z,3.90
2023-05-25T13:23:03.515Z,4.75
2023-05-25T13:28:06.666Z,4.05
2023-05-25T13:33:09.698Z,3.78
2023-05-25T13:38:16.611Z,4.40
2023-05-25T13:43:20.260Z,3.97
2023-05-25T13:48:23.063Z,4.80
2023-05-25T13:53:27.740Z,4.22
2023-05-25T13:58:30.756Z,4.65
2023-05-25T14:03:33.980Z,3.88
2023-05-25T14:08:38.198Z,3.90
2023-05-25T14:13:41.131Z,4.63
2023-05-25T14:18:44.008Z,4.95
2023-05-25T14:23:48.247Z,5.05
2023-05-25T14:28:51.715Z,5.03
2023-05-25T14:33:54.471Z,3.92
2023-05-25T14:38:58.605Z,4.90
2023-05-25T14:44:01.419Z,4.90
2023-05-25T14:49:04.293Z,5.13
2023-05-25T14:54:09.030Z,4.60
2023-05-25T14:59:11.957Z,4.55
2023-05-25T15:04:14.941Z,4.43
2023-05-25T15:09:19.534Z,3.97
2023-05-25T15:14:22.354Z,5.30
2023-05-25T15:19:25.392Z,4.82
2023-05-25T15:24:29.564Z,4.47
2023-05-25T15:29:32.328Z,4.85
2023-05-25T15:34:36.179Z,5.05
2023-05-25T15:39:40.411Z,5.65
2023-05-25T15:44:43.286Z,4.43
2023-05-25T15:49:46.061Z,4.75
2023-05-25T15:54:50.316Z,4.88
2023-05-25T15:59:53.168Z,4.57
2023-05-25T16:04:56.006Z,4.03
2023-05-25T16:10:00.237Z,4.45
2023-05-25T16:15:03.078Z,4.90
2023-05-25T16:20:07.856Z,4.95
2023-05-25T16:25:12.186Z,4.95
2023-05-25T16:30:15.079Z,5.10
2023-05-25T16:35:17.954Z,4.45
2023-05-25T16:40:22.139Z,6.10
2023-05-25T16:45:25.008Z,5.40
2023-05-25T16:50:27.860Z,5.25
2023-05-25T16:55:33.504Z,4.55
2023-05-25T17:00:36.359Z,5.22
2023-05-25T17:05:39.252Z,4.30
2023-05-25T17:10:48.846Z,5.32
2023-05-25T17:15:53.379Z,5.65
2023-05-25T17:20:57.744Z,4.60
2023-05-25T17:26:01.928Z,5.05
2023-05-25T17:31:04.803Z,5.95
2023-05-25T17:36:07.836Z,5.88
2023-05-25T17:41:12.044Z,5.57
2023-05-25T17:46:14.940Z,5.70
2023-05-25T17:51:18.560Z,6.47
2023-05-25T17:56:23.071Z,5.40
2023-05-25T18:01:25.971Z,4.90
2023-05-25T18:06:29.399Z,5.38
2023-05-25T18:11:36.086Z,4.75
2023-05-25T18:16:39.905Z,5.07
2023-05-25T18:21:42.803Z,5.22
2023-05-25T18:26:47.378Z,5.63
2023-05-25T18:31:50.338Z,5.60
2023-05-25T18:36:53.185Z,5.88
2023-05-25T18:41:57.390Z,5.88
2023-05-25T18:47:00.277Z,5.97
2023-05-25T18:52:04.308Z,6.18
2023-05-25T18:57:08.684Z,5.95
2023-05-25T19:02:11.554Z,6.38
2023-05-25T19:07:14.518Z,6.40
2023-05-25T19:12:18.833Z,6.53
2023-05-25T19:17:22.084Z,6.82
2023-05-25T19:22:24.952Z,6.53
2023-05-25T19:27:29.717Z,6.72
2023-05-25T19:32:32.670Z,7.00
2023-05-25T19:37:37.643Z,8.00
2023-05-25T19:42:41.893Z,6.45
2023-05-25T19:47:44.727Z,6.80
2023-05-25T19:52:47.819Z,7.70
2023-05-25T19:57:52.183Z,6.75
2023-05-25T20:02:55.273Z,6.75
2023-05-25T20:07:58.396Z,6.60
2023-05-25T20:13:02.600Z,7.30
2023-05-25T20:18:05.676Z,6.35
2023-05-25T20:23:08.539Z,7.22
2023-05-25T20:28:12.824Z,9.15
2023-05-25T20:33:15.704Z,6.55
2023-05-25T20:38:18.608Z,6.78
2023-05-25T20:43:22.779Z,7.05
2023-05-25T20:48:25.619Z,6.07
2023-05-25T20:53:28.613Z,7.18
2023-05-25T20:58:32.815Z,8.43
2023-05-25T21:03:36.050Z,6.18
2023-05-25T21:08:38.960Z,7.53
2023-05-25T21:13:43.202Z,5.30
2023-05-25T21:18:46.019Z,5.47
2023-05-25T21:23:48.941Z,5.63
2023-05-25T21:28:53.182Z,5.13
2023-05-25T21:33:56.046Z,6.07
2023-05-25T21:38:58.906Z,9.15
2023-05-25T21:44:03.336Z,6.18
2023-05-25T21:49:06.177Z,6.35
2023-05-25T21:54:09.004Z,5.13
2023-05-25T21:59:13.204Z,5.13
2023-05-25T22:04:16.078Z,5.38
2023-05-25T22:09:18.966Z,6.10
2023-05-25T22:14:23.159Z,6.00
2023-05-25T22:19:26.056Z,6.68
2023-05-25T22:24:28.875Z,5.65
2023-05-25T22:29:33.030Z,5.55
2023-05-25T22:34:36.197Z,6.85
2023-05-25T22:39:38.999Z,5.65
2023-05-25T22:44:43.164Z,4.68
2023-05-25T22:49:45.946Z,7.90
2023-05-25T22:54:48.788Z,6.18
2023-05-25T22:59:53.154Z,5.93
2023-05-25T23:04:56.018Z,6.18
2023-05-25T23:09:58.927Z,5.35
2023-05-25T23:15:03.157Z,6.47
2023-05-25T23:20:07.754Z,5.40
2023-05-25T23:25:11.096Z,4.90
2023-05-25T23:30:15.527Z,5.65
2023-05-25T23:35:18.517Z,5.40
2023-05-25T23:40:21.356Z,5.22
2023-05-25T23:45:25.846Z,5.65
2023-05-25T23:50:28.707Z,5.80
2023-05-25T23:55:31.554Z,7.13
